sensor_id;sensor_type;location;lat;lon;timestamp;P1;durP1;ratioP1;P2;durP2;ratioP2
53519;SDS011;39397;53.204;5.778;2023-09-12T00:01:26;31.83;;;26.67;;
53519;SDS011;39397;53.204;5.778;2023-09-12T00:04:00;31.40;;;27.42;;
53519;SDS011;39397;53.204;5.778;2023-09-12T00:06:27;30.15;;;26.52;;
53519;SDS011;39397;53.204;5.778;2023-09-12T00:08:53;31.27;;;27.83;;
53519;SDS011;39397;53.204;5.778;2023-09-12T00:11:20;32.85;;;28.30;;
53519;SDS011;39397;53.204;5.778;2023-09-12T00:13:46;33.92;;;28.52;;
53519;SDS011;39397;53.204;5.778;2023-09-12T00:16:12;35.63;;;29.77;;
53519;SDS011;39397;53.204;5.778;2023-09-12T00:18:38;32.50;;;28.85;;
53519;SDS011;39397;53.204;5.778;2023-09-12T00:21:05;33.45;;;28.58;;
53519;SDS011;39397;53.204;5.778;2023-09-12T00:23:31;33.50;;;26.50;;
53519;SDS011;39397;53.204;5.778;2023-09-12T00:25:57;32.88;;;27.90;;
53519;SDS011;39397;53.204;5.778;2023-09-12T00:28:24;33.20;;;29.65;;
53519;SDS011;39397;53.204;5.778;2023-09-12T00:30:56;33.60;;;29.13;;
53519;SDS011;39397;53.204;5.778;2023-09-12T00:33:24;35.10;;;29.48;;
53519;SDS011;39397;53.204;5.778;2023-09-12T00:35:50;37.53;;;30.55;;
53519;SDS011;39397;53.204;5.778;2023-09-12T00:38:19;34.30;;;29.73;;
53519;SDS011;39397;53.204;5.778;2023-09-12T00:40:49;33.70;;;28.60;;
53519;SDS011;39397;53.204;5.778;2023-09-12T00:43:16;38.42;;;30.95;;
53519;SDS011;39397;53.204;5.778;2023-09-12T00:45:51;37.42;;;31.73;;
53519;SDS011;39397;53.204;5.778;2023-09-12T00:48:32;38.72;;;31.70;;
53519;SDS011;39397;53.204;5.778;2023-09-12T00:51:05;35.75;;;30.38;;
53519;SDS011;39397;53.204;5.778;2023-09-12T00:53:39;38.53;;;31.33;;
53519;SDS011;39397;53.204;5.778;2023-09-12T00:56:05;42.55;;;32.75;;
53519;SDS011;39397;53.204;5.778;2023-09-12T00:58:32;34.88;;;28.92;;
53519;SDS011;39397;53.204;5.778;2023-09-12T01:01:01;39.97;;;32.22;;
53519;SDS011;39397;53.204;5.778;2023-09-12T01:03:27;39.53;;;31.77;;
53519;SDS011;39397;53.204;5.778;2023-09-12T01:05:58;36.30;;;30.05;;
53519;SDS011;39397;53.204;5.778;2023-09-12T01:08:25;34.88;;;29.42;;
53519;SDS011;39397;53.204;5.778;2023-09-12T01:10:58;38.47;;;31.57;;
53519;SDS011;39397;53.204;5.778;2023-09-12T01:13:27;44.60;;;32.40;;
53519;SDS011;39397;53.204;5.778;2023-09-12T01:15:53;37.45;;;32.50;;
53519;SDS011;39397;53.204;5.778;2023-09-12T01:18:19;42.60;;;32.38;;
53519;SDS011;39397;53.204;5.778;2023-09-12T01:20:58;38.67;;;29.35;;
53519;SDS011;39397;53.204;5.778;2023-09-12T01:29:12;50.65;;;34.58;;
53519;SDS011;39397;53.204;5.778;2023-09-12T01:31:40;47.58;;;35.30;;
53519;SDS011;39397;53.204;5.778;2023-09-12T01:34:10;38.40;;;30.98;;
53519;SDS011;39397;53.204;5.778;2023-09-12T01:36:38;48.15;;;35.72;;
53519;SDS011;39397;53.204;5.778;2023-09-12T01:39:03;39.58;;;30.02;;
53519;SDS011;39397;53.204;5.778;2023-09-12T01:41:30;38.63;;;31.95;;
53519;SDS011;39397;53.204;5.778;2023-09-12T01:43:59;44.80;;;34.20;;
53519;SDS011;39397;53.204;5.778;2023-09-12T01:46:27;44.83;;;34.70;;
53519;SDS011;39397;53.204;5.778;2023-09-12T01:49:01;45.83;;;34.78;;
53519;SDS011;39397;53.204;5.778;2023-09-12T01:51:29;45.35;;;34.70;;
53519;SDS011;39397;53.204;5.778;2023-09-12T01:53:58;43.92;;;33.78;;
53519;SDS011;39397;53.204;5.778;2023-09-12T01:56:25;39.17;;;32.45;;
53519;SDS011;39397;53.204;5.778;2023-09-12T01:58:57;52.67;;;38.45;;
53519;SDS011;39397;53.204;5.778;2023-09-12T02:04:04;47.55;;;35.85;;
53519;SDS011;39397;53.204;5.778;2023-09-12T02:06:35;52.15;;;38.10;;
53519;SDS011;39397;53.204;5.778;2023-09-12T02:09:04;56.47;;;39.20;;
53519;SDS011;39397;53.204;5.778;2023-09-12T02:11:30;45.08;;;33.90;;
53519;SDS011;39397;53.204;5.778;2023-09-12T02:14:00;48.13;;;35.28;;
53519;SDS011;39397;53.204;5.778;2023-09-12T02:16:27;45.95;;;32.67;;
53519;SDS011;39397;53.204;5.778;2023-09-12T02:18:54;44.03;;;34.80;;
53519;SDS011;39397;53.204;5.778;2023-09-12T02:21:25;41.35;;;33.60;;
53519;SDS011;39397;53.204;5.778;2023-09-12T02:23:55;50.08;;;37.35;;
53519;SDS011;39397;53.204;5.778;2023-09-12T02:26:21;40.35;;;33.08;;
53519;SDS011;39397;53.204;5.778;2023-09-12T02:28:51;49.03;;;36.95;;
53519;SDS011;39397;53.204;5.778;2023-09-12T02:31:18;49.45;;;36.95;;
53519;SDS011;39397;53.204;5.778;2023-09-12T02:33:44;48.72;;;34.95;;
53519;SDS011;39397;53.204;5.778;2023-09-12T02:36:12;44.92;;;33.25;;
53519;SDS011;39397;53.204;5.778;2023-09-12T02:38:37;39.58;;;30.25;;
53519;SDS011;39397;53.204;5.778;2023-09-12T02:41:03;53.78;;;37.90;;
53519;SDS011;39397;53.204;5.778;2023-09-12T02:43:29;44.17;;;32.72;;
53519;SDS011;39397;53.204;5.778;2023-09-12T02:46:01;47.17;;;34.17;;
53519;SDS011;39397;53.204;5.778;2023-09-12T02:48:27;42.72;;;32.47;;
53519;SDS011;39397;53.204;5.778;2023-09-12T02:50:53;43.85;;;31.92;;
53519;SDS011;39397;53.204;5.778;2023-09-12T02:53:19;51.30;;;36.22;;
53519;SDS011;39397;53.204;5.778;2023-09-12T02:55:45;47.92;;;34.38;;
53519;SDS011;39397;53.204;5.778;2023-09-12T02:58:11;46.95;;;35.75;;
53519;SDS011;39397;53.204;5.778;2023-09-12T03:00:38;49.55;;;37.53;;
53519;SDS011;39397;53.204;5.778;2023-09-12T03:05:47;49.00;;;35.47;;
53519;SDS011;39397;53.204;5.778;2023-09-12T03:08:21;55.53;;;37.42;;
53519;SDS011;39397;53.204;5.778;2023-09-12T03:10:52;57.20;;;39.72;;
53519;SDS011;39397;53.204;5.778;2023-09-12T03:13:24;52.30;;;37.58;;
53519;SDS011;39397;53.204;5.778;2023-09-12T03:15:52;48.75;;;35.35;;
53519;SDS011;39397;53.204;5.778;2023-09-12T03:18:21;44.20;;;32.53;;
53519;SDS011;39397;53.204;5.778;2023-09-12T03:20:46;48.15;;;35.58;;
53519;SDS011;39397;53.204;5.778;2023-09-12T03:23:12;45.47;;;33.05;;
53519;SDS011;39397;53.204;5.778;2023-09-12T03:25:41;49.95;;;36.30;;
53519;SDS011;39397;53.204;5.778;2023-09-12T03:28:09;50.08;;;37.33;;
53519;SDS011;39397;53.204;5.778;2023-09-12T03:30:35;55.55;;;38.72;;
53519;SDS011;39397;53.204;5.778;2023-09-12T03:33:08;48.50;;;36.70;;
53519;SDS011;39397;53.204;5.778;2023-09-12T03:35:35;54.95;;;37.50;;
53519;SDS011;39397;53.204;5.778;2023-09-12T03:38:08;55.03;;;36.13;;
53519;SDS011;39397;53.204;5.778;2023-09-12T03:40:40;56.65;;;38.20;;
53519;SDS011;39397;53.204;5.778;2023-09-12T03:43:05;49.78;;;34.30;;
53519;SDS011;39397;53.204;5.778;2023-09-12T03:45:37;55.88;;;38.08;;
53519;SDS011;39397;53.204;5.778;2023-09-12T03:48:03;51.92;;;36.33;;
53519;SDS011;39397;53.204;5.778;2023-09-12T03:50:38;49.60;;;33.72;;
53519;SDS011;39397;53.204;5.778;2023-09-12T03:53:03;50.88;;;34.88;;
53519;SDS011;39397;53.204;5.778;2023-09-12T03:55:34;58.60;;;39.35;;
53519;SDS011;39397;53.204;5.778;2023-09-12T03:58:00;61.33;;;39.45;;
53519;SDS011;39397;53.204;5.778;2023-09-12T04:00:26;55.15;;;37.42;;
53519;SDS011;39397;53.204;5.778;2023-09-12T04:02:58;63.33;;;40.22;;
53519;SDS011;39397;53.204;5.778;2023-09-12T04:05:24;56.10;;;36.78;;
53519;SDS011;39397;53.204;5.778;2023-09-12T04:07:53;60.70;;;36.25;;
53519;SDS011;39397;53.204;5.778;2023-09-12T04:10:20;53.15;;;34.97;;
53519;SDS011;39397;53.204;5.778;2023-09-12T04:12:50;67.55;;;41.38;;
53519;SDS011;39397;53.204;5.778;2023-09-12T04:15:16;65.50;;;41.40;;
53519;SDS011;39397;53.204;5.778;2023-09-12T04:17:42;67.88;;;42.40;;
53519;SDS011;39397;53.204;5.778;2023-09-12T04:20:08;69.70;;;42.50;;
53519;SDS011;39397;53.204;5.778;2023-09-12T04:22:43;82.18;;;44.17;;
53519;SDS011;39397;53.204;5.778;2023-09-12T04:25:09;67.50;;;41.83;;
53519;SDS011;39397;53.204;5.778;2023-09-12T04:27:36;74.72;;;42.90;;
53519;SDS011;39397;53.204;5.778;2023-09-12T04:30:06;67.35;;;39.10;;
53519;SDS011;39397;53.204;5.778;2023-09-12T04:32:33;89.13;;;47.22;;
53519;SDS011;39397;53.204;5.778;2023-09-12T04:34:59;76.05;;;42.22;;
53519;SDS011;39397;53.204;5.778;2023-09-12T04:37:25;88.18;;;47.92;;
53519;SDS011;39397;53.204;5.778;2023-09-12T04:39:54;125.88;;;58.13;;
53519;SDS011;39397;53.204;5.778;2023-09-12T04:42:36;83.93;;;45.97;;
53519;SDS011;39397;53.204;5.778;2023-09-12T04:45:08;93.07;;;49.80;;
53519;SDS011;39397;53.204;5.778;2023-09-12T04:47:34;120.63;;;57.75;;
53519;SDS011;39397;53.204;5.778;2023-09-12T04:50:00;101.75;;;50.92;;
53519;SDS011;39397;53.204;5.778;2023-09-12T04:52:26;113.97;;;54.63;;
53519;SDS011;39397;53.204;5.778;2023-09-12T04:54:58;128.45;;;58.20;;
53519;SDS011;39397;53.204;5.778;2023-09-12T04:57:29;144.13;;;61.45;;
53519;SDS011;39397;53.204;5.778;2023-09-12T05:00:02;119.93;;;55.72;;
53519;SDS011;39397;53.204;5.778;2023-09-12T05:02:30;127.38;;;55.15;;
53519;SDS011;39397;53.204;5.778;2023-09-12T05:04:56;119.35;;;55.20;;
53519;SDS011;39397;53.204;5.778;2023-09-12T05:07:24;95.57;;;48.10;;
53519;SDS011;39397;53.204;5.778;2023-09-12T05:09:49;115.13;;;52.90;;
53519;SDS011;39397;53.204;5.778;2023-09-12T05:12:15;140.80;;;56.47;;
53519;SDS011;39397;53.204;5.778;2023-09-12T05:14:41;103.13;;;49.08;;
53519;SDS011;39397;53.204;5.778;2023-09-12T05:17:08;154.20;;;51.05;;
53519;SDS011;39397;53.204;5.778;2023-09-12T05:19:35;101.10;;;52.17;;
53519;SDS011;39397;53.204;5.778;2023-09-12T05:22:02;154.27;;;51.78;;
53519;SDS011;39397;53.204;5.778;2023-09-12T05:24:28;121.47;;;45.05;;
53519;SDS011;39397;53.204;5.778;2023-09-12T05:26:54;256.65;;;64.03;;
53519;SDS011;39397;53.204;5.778;2023-09-12T05:29:19;327.23;;;58.72;;
53519;SDS011;39397;53.204;5.778;2023-09-12T05:31:45;320.35;;;58.05;;
53519;SDS011;39397;53.204;5.778;2023-09-12T05:34:11;118.70;;;46.05;;
53519;SDS011;39397;53.204;5.778;2023-09-12T05:36:36;172.10;;;49.70;;
53519;SDS011;39397;53.204;5.778;2023-09-12T05:39:02;140.02;;;48.40;;
53519;SDS011;39397;53.204;5.778;2023-09-12T05:41:28;93.50;;;44.72;;
53519;SDS011;39397;53.204;5.778;2023-09-12T05:43:54;154.57;;;53.55;;
53519;SDS011;39397;53.204;5.778;2023-09-12T05:46:20;77.72;;;44.00;;
53519;SDS011;39397;53.204;5.778;2023-09-12T05:48:45;77.35;;;44.10;;
53519;SDS011;39397;53.204;5.778;2023-09-12T05:51:11;76.80;;;43.85;;
53519;SDS011;39397;53.204;5.778;2023-09-12T05:53:37;68.35;;;41.17;;
53519;SDS011;39397;53.204;5.778;2023-09-12T05:56:03;67.25;;;41.05;;
53519;SDS011;39397;53.204;5.778;2023-09-12T05:58:30;78.97;;;47.42;;
53519;SDS011;39397;53.204;5.778;2023-09-12T06:00:56;65.40;;;41.25;;
53519;SDS011;39397;53.204;5.778;2023-09-12T06:03:21;65.10;;;42.40;;
53519;SDS011;39397;53.204;5.778;2023-09-12T06:05:47;54.00;;;36.33;;
53519;SDS011;39397;53.204;5.778;2023-09-12T06:08:14;59.10;;;37.90;;
53519;SDS011;39397;53.204;5.778;2023-09-12T06:10:40;59.40;;;39.72;;
53519;SDS011;39397;53.204;5.778;2023-09-12T06:13:05;57.60;;;37.75;;
53519;SDS011;39397;53.204;5.778;2023-09-12T06:15:31;53.33;;;38.35;;
53519;SDS011;39397;53.204;5.778;2023-09-12T06:17:57;64.93;;;43.03;;
53519;SDS011;39397;53.204;5.778;2023-09-12T06:20:23;58.45;;;39.75;;
53519;SDS011;39397;53.204;5.778;2023-09-12T06:22:48;58.25;;;40.72;;
53519;SDS011;39397;53.204;5.778;2023-09-12T06:25:14;55.30;;;41.58;;
53519;SDS011;39397;53.204;5.778;2023-09-12T06:27:40;52.10;;;39.42;;
53519;SDS011;39397;53.204;5.778;2023-09-12T06:30:06;55.30;;;40.05;;
53519;SDS011;39397;53.204;5.778;2023-09-12T06:32:32;49.38;;;34.42;;
53519;SDS011;39397;53.204;5.778;2023-09-12T06:34:58;46.88;;;34.70;;
53519;SDS011;39397;53.204;5.778;2023-09-12T06:37:23;48.20;;;36.28;;
53519;SDS011;39397;53.204;5.778;2023-09-12T06:39:50;46.95;;;34.10;;
53519;SDS011;39397;53.204;5.778;2023-09-12T06:42:16;43.72;;;32.65;;
53519;SDS011;39397;53.204;5.778;2023-09-12T06:44:42;44.95;;;35.63;;
53519;SDS011;39397;53.204;5.778;2023-09-12T06:47:08;40.65;;;34.75;;
53519;SDS011;39397;53.204;5.778;2023-09-12T06:49:35;50.63;;;37.25;;
53519;SDS011;39397;53.204;5.778;2023-09-12T06:52:02;46.60;;;37.05;;
53519;SDS011;39397;53.204;5.778;2023-09-12T06:54:28;46.20;;;35.05;;
53519;SDS011;39397;53.204;5.778;2023-09-12T06:56:54;45.97;;;35.75;;
53519;SDS011;39397;53.204;5.778;2023-09-12T06:59:20;45.35;;;34.90;;
53519;SDS011;39397;53.204;5.778;2023-09-12T07:01:46;43.05;;;33.00;;
53519;SDS011;39397;53.204;5.778;2023-09-12T07:04:11;44.08;;;33.65;;
53519;SDS011;39397;53.204;5.778;2023-09-12T07:06:37;51.72;;;37.03;;
53519;SDS011;39397;53.204;5.778;2023-09-12T07:09:03;47.03;;;36.45;;
53519;SDS011;39397;53.204;5.778;2023-09-12T07:11:29;46.53;;;34.95;;
53519;SDS011;39397;53.204;5.778;2023-09-12T07:13:55;42.90;;;32.13;;
53519;SDS011;39397;53.204;5.778;2023-09-12T07:16:21;43.17;;;32.67;;
53519;SDS011;39397;53.204;5.778;2023-09-12T07:18:50;43.47;;;34.22;;
53519;SDS011;39397;53.204;5.778;2023-09-12T07:21:18;37.47;;;30.33;;
53519;SDS011;39397;53.204;5.778;2023-09-12T07:23:44;34.85;;;28.70;;
53519;SDS011;39397;53.204;5.778;2023-09-12T07:26:13;39.95;;;32.25;;
53519;SDS011;39397;53.204;5.778;2023-09-12T07:28:40;38.67;;;30.23;;
53519;SDS011;39397;53.204;5.778;2023-09-12T07:31:06;35.50;;;29.50;;
53519;SDS011;39397;53.204;5.778;2023-09-12T07:33:32;41.45;;;33.40;;
53519;SDS011;39397;53.204;5.778;2023-09-12T07:35:58;41.83;;;33.03;;
53519;SDS011;39397;53.204;5.778;2023-09-12T07:38:24;41.47;;;31.50;;
53519;SDS011;39397;53.204;5.778;2023-09-12T07:40:51;42.80;;;32.92;;
53519;SDS011;39397;53.204;5.778;2023-09-12T07:43:17;40.83;;;31.40;;
53519;SDS011;39397;53.204;5.778;2023-09-12T07:45:43;44.95;;;32.88;;
53519;SDS011;39397;53.204;5.778;2023-09-12T07:48:09;40.13;;;31.75;;
53519;SDS011;39397;53.204;5.778;2023-09-12T07:50:36;43.70;;;32.38;;
53519;SDS011;39397;53.204;5.778;2023-09-12T07:53:04;38.35;;;30.83;;
53519;SDS011;39397;53.204;5.778;2023-09-12T07:55:30;37.40;;;30.50;;
53519;SDS011;39397;53.204;5.778;2023-09-12T07:58:01;38.58;;;29.83;;
53519;SDS011;39397;53.204;5.778;2023-09-12T08:00:27;49.15;;;31.85;;
53519;SDS011;39397;53.204;5.778;2023-09-12T08:02:53;42.60;;;29.80;;
53519;SDS011;39397;53.204;5.778;2023-09-12T08:05:19;37.20;;;28.45;;
53519;SDS011;39397;53.204;5.778;2023-09-12T08:07:44;35.78;;;24.27;;
53519;SDS011;39397;53.204;5.778;2023-09-12T08:10:11;31.88;;;23.33;;
53519;SDS011;39397;53.204;5.778;2023-09-12T08:12:40;28.40;;;21.08;;
53519;SDS011;39397;53.204;5.778;2023-09-12T08:15:07;50.63;;;23.83;;
53519;SDS011;39397;53.204;5.778;2023-09-12T08:17:33;72.78;;;27.25;;
53519;SDS011;39397;53.204;5.778;2023-09-12T08:19:58;29.33;;;22.05;;
53519;SDS011;39397;53.204;5.778;2023-09-12T08:22:24;35.15;;;21.35;;
53519;SDS011;39397;53.204;5.778;2023-09-12T08:24:50;31.02;;;20.42;;
53519;SDS011;39397;53.204;5.778;2023-09-12T08:27:15;27.30;;;20.50;;
53519;SDS011;39397;53.204;5.778;2023-09-12T08:29:41;35.17;;;21.33;;
53519;SDS011;39397;53.204;5.778;2023-09-12T08:32:09;36.08;;;21.35;;
53519;SDS011;39397;53.204;5.778;2023-09-12T08:34:35;32.70;;;19.75;;
53519;SDS011;39397;53.204;5.778;2023-09-12T08:37:01;48.30;;;21.95;;
53519;SDS011;39397;53.204;5.778;2023-09-12T08:39:27;27.05;;;18.02;;
53519;SDS011;39397;53.204;5.778;2023-09-12T08:42:04;23.63;;;16.77;;
53519;SDS011;39397;53.204;5.778;2023-09-12T08:44:31;21.52;;;15.30;;
53519;SDS011;39397;53.204;5.778;2023-09-12T08:46:57;19.52;;;13.80;;
53519;SDS011;39397;53.204;5.778;2023-09-12T08:49:25;23.52;;;14.27;;
53519;SDS011;39397;53.204;5.778;2023-09-12T08:51:52;16.77;;;13.05;;
53519;SDS011;39397;53.204;5.778;2023-09-12T08:54:17;21.38;;;14.15;;
53519;SDS011;39397;53.204;5.778;2023-09-12T08:56:54;17.75;;;13.07;;
53519;SDS011;39397;53.204;5.778;2023-09-12T08:59:20;18.67;;;12.95;;
53519;SDS011;39397;53.204;5.778;2023-09-12T09:01:46;17.60;;;12.10;;
53519;SDS011;39397;53.204;5.778;2023-09-12T09:04:18;16.90;;;11.02;;
53519;SDS011;39397;53.204;5.778;2023-09-12T09:06:45;16.83;;;11.55;;
53519;SDS011;39397;53.204;5.778;2023-09-12T09:09:11;17.80;;;11.88;;
53519;SDS011;39397;53.204;5.778;2023-09-12T09:11:38;24.85;;;13.07;;
53519;SDS011;39397;53.204;5.778;2023-09-12T09:14:04;22.67;;;12.65;;
53519;SDS011;39397;53.204;5.778;2023-09-12T09:16:30;40.97;;;15.05;;
53519;SDS011;39397;53.204;5.778;2023-09-12T09:18:58;19.92;;;13.45;;
53519;SDS011;39397;53.204;5.778;2023-09-12T09:21:29;21.58;;;14.10;;
53519;SDS011;39397;53.204;5.778;2023-09-12T09:24:09;19.00;;;13.15;;
53519;SDS011;39397;53.204;5.778;2023-09-12T09:26:48;18.35;;;12.93;;
53519;SDS011;39397;53.204;5.778;2023-09-12T09:29:16;16.88;;;11.00;;
53519;SDS011;39397;53.204;5.778;2023-09-12T09:31:44;16.08;;;11.02;;
53519;SDS011;39397;53.204;5.778;2023-09-12T09:34:16;16.95;;;11.60;;
53519;SDS011;39397;53.204;5.778;2023-09-12T09:36:50;16.90;;;11.18;;
53519;SDS011;39397;53.204;5.778;2023-09-12T09:41:46;18.80;;;12.30;;
53519;SDS011;39397;53.204;5.778;2023-09-12T09:44:16;17.45;;;11.90;;
53519;SDS011;39397;53.204;5.778;2023-09-12T09:46:43;15.40;;;11.23;;
53519;SDS011;39397;53.204;5.778;2023-09-12T09:49:10;15.95;;;10.48;;
53519;SDS011;39397;53.204;5.778;2023-09-12T09:51:43;17.80;;;11.90;;
53519;SDS011;39397;53.204;5.778;2023-09-12T09:54:10;17.45;;;12.10;;
53519;SDS011;39397;53.204;5.778;2023-09-12T09:59:16;17.13;;;11.48;;
53519;SDS011;39397;53.204;5.778;2023-09-12T10:01:44;15.38;;;10.88;;
53519;SDS011;39397;53.204;5.778;2023-09-12T10:04:10;16.38;;;11.23;;
53519;SDS011;39397;53.204;5.778;2023-09-12T10:06:37;17.40;;;11.95;;
53519;SDS011;39397;53.204;5.778;2023-09-12T10:09:11;15.98;;;10.98;;
53519;SDS011;39397;53.204;5.778;2023-09-12T10:11:41;18.88;;;10.77;;
53519;SDS011;39397;53.204;5.778;2023-09-12T10:14:09;18.25;;;11.65;;
53519;SDS011;39397;53.204;5.778;2023-09-12T10:16:57;16.20;;;9.95;;
53519;SDS011;39397;53.204;5.778;2023-09-12T10:19:28;15.48;;;10.85;;
53519;SDS011;39397;53.204;5.778;2023-09-12T10:24:36;16.10;;;10.63;;
53519;SDS011;39397;53.204;5.778;2023-09-12T10:27:03;14.88;;;9.95;;
53519;SDS011;39397;53.204;5.778;2023-09-12T10:29:30;11.50;;;7.32;;
53519;SDS011;39397;53.204;5.778;2023-09-12T10:31:56;14.38;;;8.45;;
53519;SDS011;39397;53.204;5.778;2023-09-12T10:34:22;12.20;;;8.73;;
53519;SDS011;39397;53.204;5.778;2023-09-12T10:36:57;13.27;;;8.70;;
53519;SDS011;39397;53.204;5.778;2023-09-12T10:39:24;13.05;;;8.18;;
53519;SDS011;39397;53.204;5.778;2023-09-12T10:41:53;13.07;;;8.77;;
53519;SDS011;39397;53.204;5.778;2023-09-12T10:44:20;12.90;;;9.20;;
53519;SDS011;39397;53.204;5.778;2023-09-12T10:46:46;12.30;;;9.00;;
53519;SDS011;39397;53.204;5.778;2023-09-12T10:49:14;15.35;;;8.52;;
53519;SDS011;39397;53.204;5.778;2023-09-12T10:51:41;10.90;;;8.40;;
53519;SDS011;39397;53.204;5.778;2023-09-12T10:54:09;9.90;;;7.85;;
53519;SDS011;39397;53.204;5.778;2023-09-12T10:56:40;11.25;;;8.25;;
53519;SDS011;39397;53.204;5.778;2023-09-12T11:01:32;11.70;;;7.45;;
53519;SDS011;39397;53.204;5.778;2023-09-12T11:06:48;11.43;;;7.55;;
53519;SDS011;39397;53.204;5.778;2023-09-12T11:11:48;11.90;;;7.45;;
53519;SDS011;39397;53.204;5.778;2023-09-12T11:14:27;11.52;;;8.40;;
53519;SDS011;39397;53.204;5.778;2023-09-12T11:19:45;10.30;;;7.72;;
53519;SDS011;39397;53.204;5.778;2023-09-12T11:22:27;10.27;;;7.72;;
53519;SDS011;39397;53.204;5.778;2023-09-12T11:24:56;9.65;;;7.90;;
53519;SDS011;39397;53.204;5.778;2023-09-12T11:27:25;13.60;;;7.07;;
53519;SDS011;39397;53.204;5.778;2023-09-12T11:30:04;9.68;;;7.32;;
53519;SDS011;39397;53.204;5.778;2023-09-12T11:32:31;8.07;;;6.53;;
53519;SDS011;39397;53.204;5.778;2023-09-12T11:35:04;11.77;;;6.65;;
53519;SDS011;39397;53.204;5.778;2023-09-12T11:37:35;9.40;;;6.22;;
53519;SDS011;39397;53.204;5.778;2023-09-12T11:40:23;8.88;;;6.00;;
53519;SDS011;39397;53.204;5.778;2023-09-12T11:42:50;8.93;;;5.97;;
53519;SDS011;39397;53.204;5.778;2023-09-12T11:45:20;9.52;;;5.80;;
53519;SDS011;39397;53.204;5.778;2023-09-12T11:47:48;9.15;;;5.00;;
53519;SDS011;39397;53.204;5.778;2023-09-12T11:50:27;7.07;;;5.40;;
53519;SDS011;39397;53.204;5.778;2023-09-12T11:53:04;7.53;;;5.10;;
53519;SDS011;39397;53.204;5.778;2023-09-12T11:55:35;7.75;;;4.80;;
53519;SDS011;39397;53.204;5.778;2023-09-12T11:58:02;8.00;;;4.47;;
53519;SDS011;39397;53.204;5.778;2023-09-12T12:00:30;8.07;;;4.72;;
53519;SDS011;39397;53.204;5.778;2023-09-12T12:03:02;6.00;;;4.15;;
53519;SDS011;39397;53.204;5.778;2023-09-12T12:05:28;7.03;;;4.20;;
53519;SDS011;39397;53.204;5.778;2023-09-12T12:07:54;5.82;;;3.80;;
53519;SDS011;39397;53.204;5.778;2023-09-12T12:10:20;7.50;;;3.70;;
53519;SDS011;39397;53.204;5.778;2023-09-12T12:12:48;7.68;;;4.13;;
53519;SDS011;39397;53.204;5.778;2023-09-12T12:15:18;6.43;;;3.70;;
53519;SDS011;39397;53.204;5.778;2023-09-12T12:17:44;6.63;;;3.70;;
53519;SDS011;39397;53.204;5.778;2023-09-12T12:20:10;8.02;;;4.03;;
53519;SDS011;39397;53.204;5.778;2023-09-12T12:22:37;7.10;;;4.15;;
53519;SDS011;39397;53.204;5.778;2023-09-12T12:25:10;8.82;;;4.10;;
53519;SDS011;39397;53.204;5.778;2023-09-12T12:27:39;8.10;;;3.88;;
53519;SDS011;39397;53.204;5.778;2023-09-12T12:30:11;6.75;;;3.97;;
53519;SDS011;39397;53.204;5.778;2023-09-12T12:32:45;6.88;;;4.07;;
53519;SDS011;39397;53.204;5.778;2023-09-12T12:35:22;5.95;;;3.47;;
53519;SDS011;39397;53.204;5.778;2023-09-12T12:37:49;7.75;;;4.13;;
53519;SDS011;39397;53.204;5.778;2023-09-12T12:40:15;7.50;;;4.90;;
53519;SDS011;39397;53.204;5.778;2023-09-12T12:42:44;8.15;;;4.97;;
53519;SDS011;39397;53.204;5.778;2023-09-12T12:45:18;10.43;;;5.13;;
53519;SDS011;39397;53.204;5.778;2023-09-12T12:47:45;8.70;;;4.93;;
53519;SDS011;39397;53.204;5.778;2023-09-12T12:50:14;8.60;;;4.40;;
53519;SDS011;39397;53.204;5.778;2023-09-12T12:52:41;6.50;;;4.07;;
53519;SDS011;39397;53.204;5.778;2023-09-12T12:55:14;9.80;;;5.18;;
53519;SDS011;39397;53.204;5.778;2023-09-12T12:57:42;6.70;;;3.85;;
53519;SDS011;39397;53.204;5.778;2023-09-12T13:02:36;8.07;;;4.93;;
53519;SDS011;39397;53.204;5.778;2023-09-12T13:05:03;7.97;;;4.43;;
53519;SDS011;39397;53.204;5.778;2023-09-12T13:07:33;8.10;;;4.90;;
53519;SDS011;39397;53.204;5.778;2023-09-12T13:10:00;7.38;;;4.75;;
53519;SDS011;39397;53.204;5.778;2023-09-12T13:12:27;7.13;;;4.28;;
53519;SDS011;39397;53.204;5.778;2023-09-12T13:14:53;8.82;;;4.68;;
53519;SDS011;39397;53.204;5.778;2023-09-12T13:17:19;7.78;;;3.97;;
53519;SDS011;39397;53.204;5.778;2023-09-12T13:19:44;8.52;;;4.20;;
53519;SDS011;39397;53.204;5.778;2023-09-12T13:22:10;6.28;;;3.63;;
53519;SDS011;39397;53.204;5.778;2023-09-12T13:24:36;11.00;;;4.15;;
53519;SDS011;39397;53.204;5.778;2023-09-12T13:27:02;8.02;;;4.00;;
53519;SDS011;39397;53.204;5.778;2023-09-12T13:29:28;7.75;;;3.30;;
53519;SDS011;39397;53.204;5.778;2023-09-12T13:31:54;7.65;;;4.35;;
53519;SDS011;39397;53.204;5.778;2023-09-12T13:34:21;6.60;;;3.13;;
53519;SDS011;39397;53.204;5.778;2023-09-12T13:36:46;5.97;;;2.58;;
53519;SDS011;39397;53.204;5.778;2023-09-12T13:39:12;8.45;;;3.30;;
53519;SDS011;39397;53.204;5.778;2023-09-12T13:41:41;6.13;;;2.97;;
53519;SDS011;39397;53.204;5.778;2023-09-12T13:44:07;6.43;;;2.75;;
53519;SDS011;39397;53.204;5.778;2023-09-12T13:46:32;5.45;;;2.70;;
53519;SDS011;39397;53.204;5.778;2023-09-12T13:48:58;7.28;;;3.15;;
53519;SDS011;39397;53.204;5.778;2023-09-12T13:51:26;7.47;;;3.80;;
53519;SDS011;39397;53.204;5.778;2023-09-12T13:53:52;9.27;;;3.72;;
53519;SDS011;39397;53.204;5.778;2023-09-12T13:56:18;7.93;;;3.75;;
53519;SDS011;39397;53.204;5.778;2023-09-12T13:58:43;9.63;;;3.85;;
53519;SDS011;39397;53.204;5.778;2023-09-12T14:01:09;6.75;;;3.22;;
53519;SDS011;39397;53.204;5.778;2023-09-12T14:03:35;7.03;;;3.58;;
53519;SDS011;39397;53.204;5.778;2023-09-12T14:06:01;6.72;;;3.22;;
53519;SDS011;39397;53.204;5.778;2023-09-12T14:08:27;7.72;;;3.35;;
53519;SDS011;39397;53.204;5.778;2023-09-12T14:10:52;6.68;;;3.28;;
53519;SDS011;39397;53.204;5.778;2023-09-12T14:13:18;6.80;;;3.22;;
53519;SDS011;39397;53.204;5.778;2023-09-12T14:15:44;6.35;;;3.15;;
53519;SDS011;39397;53.204;5.778;2023-09-12T14:18:11;4.68;;;2.60;;
53519;SDS011;39397;53.204;5.778;2023-09-12T14:20:37;6.07;;;2.35;;
53519;SDS011;39397;53.204;5.778;2023-09-12T14:23:03;8.05;;;2.60;;
53519;SDS011;39397;53.204;5.778;2023-09-12T14:25:29;6.03;;;2.60;;
53519;SDS011;39397;53.204;5.778;2023-09-12T14:27:54;5.47;;;2.92;;
53519;SDS011;39397;53.204;5.778;2023-09-12T14:30:20;6.07;;;2.65;;
53519;SDS011;39397;53.204;5.778;2023-09-12T14:32:47;6.25;;;2.65;;
53519;SDS011;39397;53.204;5.778;2023-09-12T14:35:13;5.32;;;2.70;;
53519;SDS011;39397;53.204;5.778;2023-09-12T14:37:39;6.15;;;3.00;;
53519;SDS011;39397;53.204;5.778;2023-09-12T14:40:05;4.68;;;2.15;;
53519;SDS011;39397;53.204;5.778;2023-09-12T14:42:32;6.20;;;2.50;;
53519;SDS011;39397;53.204;5.778;2023-09-12T14:44:58;6.07;;;2.58;;
53519;SDS011;39397;53.204;5.778;2023-09-12T14:47:23;5.75;;;2.28;;
53519;SDS011;39397;53.204;5.778;2023-09-12T14:49:51;5.22;;;2.28;;
53519;SDS011;39397;53.204;5.778;2023-09-12T14:52:17;4.95;;;2.50;;
53519;SDS011;39397;53.204;5.778;2023-09-12T14:54:43;5.15;;;2.22;;
53519;SDS011;39397;53.204;5.778;2023-09-12T14:57:09;5.53;;;2.10;;
53519;SDS011;39397;53.204;5.778;2023-09-12T14:59:34;4.93;;;2.53;;
53519;SDS011;39397;53.204;5.778;2023-09-12T15:02:00;4.57;;;2.45;;
53519;SDS011;39397;53.204;5.778;2023-09-12T15:04:26;7.13;;;2.55;;